sensor_id;sensor_type;location;lat;lon;timestamp;pressure;altitude;pressure_sealevel;temperature
19666;BMP180;9980;51.020;7.772;2022-09-09T00:04:03;96922.00;;;18.10
19666;BMP180;9980;51.020;7.772;2022-09-09T00:06:43;96911.00;;;18.10
19666;BMP180;9980;51.020;7.772;2022-09-09T00:09:17;96927.00;;;18.10
19666;BMP180;9980;51.020;7.772;2022-09-09T00:11:51;96913.00;;;18.10
19666;BMP180;9980;51.020;7.772;2022-09-09T00:14:48;96917.00;;;18.10
19666;BMP180;9980;51.020;7.772;2022-09-09T00:17:47;96913.00;;;18.10
19666;BMP180;9980;51.020;7.772;2022-09-09T00:20:47;96912.00;;;18.10
19666;BMP180;9980;51.020;7.772;2022-09-09T00:23:38;96910.00;;;18.00
19666;BMP180;9980;51.020;7.772;2022-09-09T00:26:32;96923.00;;;18.00
19666;BMP180;9980;51.020;7.772;2022-09-09T00:31:36;96914.00;;;18.10
19666;BMP180;9980;51.020;7.772;2022-09-09T00:34:15;96910.00;;;18.00
19666;BMP180;9980;51.020;7.772;2022-09-09T00:36:45;96910.00;;;18.10
19666;BMP180;9980;51.020;7.772;2022-09-09T00:39:32;96899.00;;;18.00
19666;BMP180;9980;51.020;7.772;2022-09-09T00:42:26;96902.00;;;18.00
19666;BMP180;9980;51.020;7.772;2022-09-09T00:47:50;96901.00;;;18.10
19666;BMP180;9980;51.020;7.772;2022-09-09T00:57:21;96893.00;;;18.10
19666;BMP180;9980;51.020;7.772;2022-09-09T00:59:50;96894.00;;;18.00
19666;BMP180;9980;51.020;7.772;2022-09-09T01:02:53;96895.00;;;18.00
19666;BMP180;9980;51.020;7.772;2022-09-09T01:08:03;96909.00;;;18.00
19666;BMP180;9980;51.020;7.772;2022-09-09T01:10:51;96910.00;;;18.00
19666;BMP180;9980;51.020;7.772;2022-09-09T01:13:33;96899.00;;;18.00
19666;BMP180;9980;51.020;7.772;2022-09-09T01:16:10;96907.00;;;18.10
19666;BMP180;9980;51.020;7.772;2022-09-09T01:18:44;96908.00;;;18.10
19666;BMP180;9980;51.020;7.772;2022-09-09T01:21:38;96893.00;;;18.10
19666;BMP180;9980;51.020;7.772;2022-09-09T01:24:23;96900.00;;;18.10
19666;BMP180;9980;51.020;7.772;2022-09-09T01:27:05;96904.00;;;18.10
19666;BMP180;9980;51.020;7.772;2022-09-09T01:29:33;96902.00;;;18.10
19666;BMP180;9980;51.020;7.772;2022-09-09T01:32:38;96896.00;;;18.10
19666;BMP180;9980;51.020;7.772;2022-09-09T01:35:52;96911.00;;;18.00
19666;BMP180;9980;51.020;7.772;2022-09-09T01:38:25;96903.00;;;18.10
19666;BMP180;9980;51.020;7.772;2022-09-09T01:40:53;96895.00;;;18.00
19666;BMP180;9980;51.020;7.772;2022-09-09T01:43:26;96898.00;;;18.00
19666;BMP180;9980;51.020;7.772;2022-09-09T01:45:59;96899.00;;;18.00
19666;BMP180;9980;51.020;7.772;2022-09-09T01:48:28;96903.00;;;18.00
19666;BMP180;9980;51.020;7.772;2022-09-09T01:51:05;96908.00;;;18.00
19666;BMP180;9980;51.020;7.772;2022-09-09T01:53:32;96908.00;;;18.00
19666;BMP180;9980;51.020;7.772;2022-09-09T01:56:21;96915.00;;;18.00
19666;BMP180;9980;51.020;7.772;2022-09-09T01:59:11;96913.00;;;18.00
19666;BMP180;9980;51.020;7.772;2022-09-09T02:02:01;96906.00;;;17.90
19666;BMP180;9980;51.020;7.772;2022-09-09T02:04:49;96893.00;;;17.90
19666;BMP180;9980;51.020;7.772;2022-09-09T02:07:40;96911.00;;;17.90
19666;BMP180;9980;51.020;7.772;2022-09-09T02:10:31;96901.00;;;17.90
19666;BMP180;9980;51.020;7.772;2022-09-09T02:13:15;96897.00;;;17.90
19666;BMP180;9980;51.020;7.772;2022-09-09T02:15:56;96893.00;;;17.90
19666;BMP180;9980;51.020;7.772;2022-09-09T02:18:32;96898.00;;;17.90
19666;BMP180;9980;51.020;7.772;2022-09-09T02:21:03;96896.00;;;17.90
19666;BMP180;9980;51.020;7.772;2022-09-09T02:23:31;96897.00;;;18.00
19666;BMP180;9980;51.020;7.772;2022-09-09T02:26:02;96898.00;;;18.00
19666;BMP180;9980;51.020;7.772;2022-09-09T02:28:32;96915.00;;;18.00
19666;BMP180;9980;51.020;7.772;2022-09-09T02:31:02;96900.00;;;18.00
19666;BMP180;9980;51.020;7.772;2022-09-09T02:33:42;96911.00;;;18.00
19666;BMP180;9980;51.020;7.772;2022-09-09T02:36:12;96914.00;;;18.00
19666;BMP180;9980;51.020;7.772;2022-09-09T02:38:46;96908.00;;;18.00
19666;BMP180;9980;51.020;7.772;2022-09-09T02:41:27;96907.00;;;18.00
19666;BMP180;9980;51.020;7.772;2022-09-09T02:43:55;96897.00;;;18.00
19666;BMP180;9980;51.020;7.772;2022-09-09T02:47:01;96901.00;;;18.00
19666;BMP180;9980;51.020;7.772;2022-09-09T02:52:54;96909.00;;;17.90
19666;BMP180;9980;51.020;7.772;2022-09-09T02:58:10;96897.00;;;17.90
19666;BMP180;9980;51.020;7.772;2022-09-09T03:00:40;96884.00;;;17.90
19666;BMP180;9980;51.020;7.772;2022-09-09T03:03:08;96899.00;;;17.90
19666;BMP180;9980;51.020;7.772;2022-09-09T03:05:42;96895.00;;;17.90
19666;BMP180;9980;51.020;7.772;2022-09-09T03:08:12;96907.00;;;17.90
19666;BMP180;9980;51.020;7.772;2022-09-09T03:10:41;96890.00;;;17.90
19666;BMP180;9980;51.020;7.772;2022-09-09T03:13:09;96905.00;;;17.90
19666;BMP180;9980;51.020;7.772;2022-09-09T03:15:38;96911.00;;;17.90
19666;BMP180;9980;51.020;7.772;2022-09-09T03:18:11;96914.00;;;17.90
19666;BMP180;9980;51.020;7.772;2022-09-09T03:20:38;96911.00;;;17.90
19666;BMP180;9980;51.020;7.772;2022-09-09T03:23:08;96894.00;;;17.90
19666;BMP180;9980;51.020;7.772;2022-09-09T03:25:48;96911.00;;;17.90
19666;BMP180;9980;51.020;7.772;2022-09-09T03:28:18;96898.00;;;17.90
19666;BMP180;9980;51.020;7.772;2022-09-09T03:30:45;96912.00;;;17.90
19666;BMP180;9980;51.020;7.772;2022-09-09T03:33:12;96894.00;;;17.80
19666;BMP180;9980;51.020;7.772;2022-09-09T03:35:46;96906.00;;;17.80
19666;BMP180;9980;51.020;7.772;2022-09-09T03:38:17;96898.00;;;17.80
19666;BMP180;9980;51.020;7.772;2022-09-09T03:40:56;96913.00;;;17.80
19666;BMP180;9980;51.020;7.772;2022-09-09T03:43:26;96908.00;;;17.80
19666;BMP180;9980;51.020;7.772;2022-09-09T03:45:54;96881.00;;;17.90
19666;BMP180;9980;51.020;7.772;2022-09-09T03:48:25;96907.00;;;17.90
19666;BMP180;9980;51.020;7.772;2022-09-09T03:50:55;96888.00;;;17.80
19666;BMP180;9980;51.020;7.772;2022-09-09T03:53:25;96914.00;;;17.90
19666;BMP180;9980;51.020;7.772;2022-09-09T03:55:55;96897.00;;;17.90
19666;BMP180;9980;51.020;7.772;2022-09-09T03:58:25;96903.00;;;17.90
19666;BMP180;9980;51.020;7.772;2022-09-09T04:01:04;96906.00;;;17.80
19666;BMP180;9980;51.020;7.772;2022-09-09T04:03:32;96912.00;;;17.90
19666;BMP180;9980;51.020;7.772;2022-09-09T04:06:01;96915.00;;;17.90
19666;BMP180;9980;51.020;7.772;2022-09-09T04:08:31;96903.00;;;17.90
19666;BMP180;9980;51.020;7.772;2022-09-09T04:11:00;96901.00;;;17.90
19666;BMP180;9980;51.020;7.772;2022-09-09T04:13:28;96909.00;;;17.90
19666;BMP180;9980;51.020;7.772;2022-09-09T04:15:59;96913.00;;;17.90
19666;BMP180;9980;51.020;7.772;2022-09-09T04:18:28;96898.00;;;17.90
19666;BMP180;9980;51.020;7.772;2022-09-09T04:20:55;96910.00;;;18.00
19666;BMP180;9980;51.020;7.772;2022-09-09T04:23:28;96905.00;;;18.00
19666;BMP180;9980;51.020;7.772;2022-09-09T04:26:00;96907.00;;;18.00
19666;BMP180;9980;51.020;7.772;2022-09-09T04:28:31;96898.00;;;18.00
19666;BMP180;9980;51.020;7.772;2022-09-09T04:31:06;96905.00;;;18.00
19666;BMP180;9980;51.020;7.772;2022-09-09T04:33:35;96898.00;;;18.10
19666;BMP180;9980;51.020;7.772;2022-09-09T04:36:07;96905.00;;;18.10
19666;BMP180;9980;51.020;7.772;2022-09-09T04:38:35;96897.00;;;18.10
19666;BMP180;9980;51.020;7.772;2022-09-09T04:41:03;96909.00;;;18.10
19666;BMP180;9980;51.020;7.772;2022-09-09T04:43:31;96908.00;;;18.10
19666;BMP180;9980;51.020;7.772;2022-09-09T04:46:00;96895.00;;;18.20
19666;BMP180;9980;51.020;7.772;2022-09-09T04:48:27;96912.00;;;18.20
19666;BMP180;9980;51.020;7.772;2022-09-09T04:50:57;96912.00;;;18.20
19666;BMP180;9980;51.020;7.772;2022-09-09T04:53:25;96910.00;;;18.20
19666;BMP180;9980;51.020;7.772;2022-09-09T04:56:05;96884.00;;;18.20
19666;BMP180;9980;51.020;7.772;2022-09-09T04:58:39;96901.00;;;18.20
19666;BMP180;9980;51.020;7.772;2022-09-09T05:01:14;96892.00;;;18.20
19666;BMP180;9980;51.020;7.772;2022-09-09T05:03:44;96902.00;;;18.20
19666;BMP180;9980;51.020;7.772;2022-09-09T05:06:20;96899.00;;;18.20
19666;BMP180;9980;51.020;7.772;2022-09-09T05:08:50;96905.00;;;18.20
19666;BMP180;9980;51.020;7.772;2022-09-09T05:11:26;96893.00;;;18.20
19666;BMP180;9980;51.020;7.772;2022-09-09T05:13:58;96906.00;;;18.30
19666;BMP180;9980;51.020;7.772;2022-09-09T05:16:26;96898.00;;;18.30
19666;BMP180;9980;51.020;7.772;2022-09-09T05:18:54;96907.00;;;18.30
19666;BMP180;9980;51.020;7.772;2022-09-09T05:21:24;96907.00;;;18.30
19666;BMP180;9980;51.020;7.772;2022-09-09T05:23:52;96893.00;;;18.30
19666;BMP180;9980;51.020;7.772;2022-09-09T05:26:22;96899.00;;;18.40
19666;BMP180;9980;51.020;7.772;2022-09-09T05:28:52;96891.00;;;18.40
19666;BMP180;9980;51.020;7.772;2022-09-09T05:31:19;96917.00;;;18.40
19666;BMP180;9980;51.020;7.772;2022-09-09T05:33:49;96911.00;;;18.40
19666;BMP180;9980;51.020;7.772;2022-09-09T05:36:21;96917.00;;;18.40
19666;BMP180;9980;51.020;7.772;2022-09-09T05:38:53;96920.00;;;18.50
19666;BMP180;9980;51.020;7.772;2022-09-09T05:41:21;96928.00;;;18.50
19666;BMP180;9980;51.020;7.772;2022-09-09T05:43:52;96915.00;;;18.50
19666;BMP180;9980;51.020;7.772;2022-09-09T05:46:22;96924.00;;;18.50
19666;BMP180;9980;51.020;7.772;2022-09-09T05:48:53;96933.00;;;18.60
19666;BMP180;9980;51.020;7.772;2022-09-09T05:51:28;96914.00;;;18.60
19666;BMP180;9980;51.020;7.772;2022-09-09T05:53:59;96916.00;;;18.60
19666;BMP180;9980;51.020;7.772;2022-09-09T05:56:29;96923.00;;;18.70
19666;BMP180;9980;51.020;7.772;2022-09-09T05:58:58;96917.00;;;18.70
19666;BMP180;9980;51.020;7.772;2022-09-09T06:01:33;96920.00;;;18.70
19666;BMP180;9980;51.020;7.772;2022-09-09T06:04:02;96922.00;;;18.70
19666;BMP180;9980;51.020;7.772;2022-09-09T06:06:35;96906.00;;;18.70
19666;BMP180;9980;51.020;7.772;2022-09-09T06:09:07;96911.00;;;18.80
19666;BMP180;9980;51.020;7.772;2022-09-09T06:11:39;96925.00;;;18.80
19666;BMP180;9980;51.020;7.772;2022-09-09T06:14:08;96922.00;;;18.80
19666;BMP180;9980;51.020;7.772;2022-09-09T06:16:36;96920.00;;;18.80
19666;BMP180;9980;51.020;7.772;2022-09-09T06:19:15;96929.00;;;18.90
19666;BMP180;9980;51.020;7.772;2022-09-09T06:21:43;96924.00;;;18.90
19666;BMP180;9980;51.020;7.772;2022-09-09T06:24:11;96927.00;;;19.00
19666;BMP180;9980;51.020;7.772;2022-09-09T06:26:40;96926.00;;;19.00
19666;BMP180;9980;51.020;7.772;2022-09-09T06:29:10;96921.00;;;19.00
19666;BMP180;9980;51.020;7.772;2022-09-09T06:31:38;96915.00;;;19.10
19666;BMP180;9980;51.020;7.772;2022-09-09T06:34:14;96917.00;;;19.10
19666;BMP180;9980;51.020;7.772;2022-09-09T06:36:45;96923.00;;;19.20
19666;BMP180;9980;51.020;7.772;2022-09-09T06:39:12;96915.00;;;19.20
19666;BMP180;9980;51.020;7.772;2022-09-09T06:41:42;96908.00;;;19.30
19666;BMP180;9980;51.020;7.772;2022-09-09T06:44:38;96928.00;;;19.30
19666;BMP180;9980;51.020;7.772;2022-09-09T06:47:11;96920.00;;;19.40
19666;BMP180;9980;51.020;7.772;2022-09-09T06:49:40;96908.00;;;19.40
19666;BMP180;9980;51.020;7.772;2022-09-09T06:52:12;96927.00;;;19.50
19666;BMP180;9980;51.020;7.772;2022-09-09T06:54:42;96926.00;;;19.50
19666;BMP180;9980;51.020;7.772;2022-09-09T06:57:09;96924.00;;;19.60
19666;BMP180;9980;51.020;7.772;2022-09-09T06:59:56;96923.00;;;19.60
19666;BMP180;9980;51.020;7.772;2022-09-09T07:02:24;96917.00;;;19.70
19666;BMP180;9980;51.020;7.772;2022-09-09T07:04:51;96919.00;;;19.70
19666;BMP180;9980;51.020;7.772;2022-09-09T07:07:18;96918.00;;;19.80
19666;BMP180;9980;51.020;7.772;2022-09-09T07:09:46;96917.00;;;19.80
19666;BMP180;9980;51.020;7.772;2022-09-09T07:12:18;96915.00;;;19.80
19666;BMP180;9980;51.020;7.772;2022-09-09T07:14:53;96926.00;;;19.90
19666;BMP180;9980;51.020;7.772;2022-09-09T07:17:20;96920.00;;;19.70
19666;BMP180;9980;51.020;7.772;2022-09-09T07:19:47;96925.00;;;20.00
19666;BMP180;9980;51.020;7.772;2022-09-09T07:22:16;96928.00;;;20.00
19666;BMP180;9980;51.020;7.772;2022-09-09T07:24:43;96921.00;;;20.10
19666;BMP180;9980;51.020;7.772;2022-09-09T07:27:13;96940.00;;;20.10
19666;BMP180;9980;51.020;7.772;2022-09-09T07:29:41;96929.00;;;20.10
19666;BMP180;9980;51.020;7.772;2022-09-09T07:32:08;96937.00;;;20.20
19666;BMP180;9980;51.020;7.772;2022-09-09T07:34:36;96949.00;;;20.20
19666;BMP180;9980;51.020;7.772;2022-09-09T07:37:04;96926.00;;;20.30
19666;BMP180;9980;51.020;7.772;2022-09-09T07:39:32;96941.00;;;20.30
19666;BMP180;9980;51.020;7.772;2022-09-09T07:42:00;96948.00;;;20.40
19666;BMP180;9980;51.020;7.772;2022-09-09T07:44:27;96955.00;;;20.40
19666;BMP180;9980;51.020;7.772;2022-09-09T07:47:05;96948.00;;;20.50
19666;BMP180;9980;51.020;7.772;2022-09-09T07:49:36;96935.00;;;20.50
19666;BMP180;9980;51.020;7.772;2022-09-09T07:52:05;96954.00;;;20.50
19666;BMP180;9980;51.020;7.772;2022-09-09T07:54:34;96941.00;;;20.60
19666;BMP180;9980;51.020;7.772;2022-09-09T07:57:04;96953.00;;;20.70
19666;BMP180;9980;51.020;7.772;2022-09-09T07:59:34;96953.00;;;20.70
19666;BMP180;9980;51.020;7.772;2022-09-09T08:02:02;96946.00;;;20.80
19666;BMP180;9980;51.020;7.772;2022-09-09T08:04:32;96957.00;;;20.80
19666;BMP180;9980;51.020;7.772;2022-09-09T08:07:00;96959.00;;;20.90
19666;BMP180;9980;51.020;7.772;2022-09-09T08:09:36;96955.00;;;21.00
19666;BMP180;9980;51.020;7.772;2022-09-09T08:12:16;96954.00;;;21.00
19666;BMP180;9980;51.020;7.772;2022-09-09T08:14:43;96957.00;;;21.10
19666;BMP180;9980;51.020;7.772;2022-09-09T08:17:10;96952.00;;;21.20
19666;BMP180;9980;51.020;7.772;2022-09-09T08:19:37;96951.00;;;21.30
19666;BMP180;9980;51.020;7.772;2022-09-09T08:22:10;96957.00;;;21.30
19666;BMP180;9980;51.020;7.772;2022-09-09T08:24:39;96965.00;;;21.40
19666;BMP180;9980;51.020;7.772;2022-09-09T08:27:07;96953.00;;;21.50
19666;BMP180;9980;51.020;7.772;2022-09-09T08:29:34;96936.00;;;21.50
19666;BMP180;9980;51.020;7.772;2022-09-09T08:32:01;96954.00;;;21.60
19666;BMP180;9980;51.020;7.772;2022-09-09T08:34:28;96939.00;;;21.70
19666;BMP180;9980;51.020;7.772;2022-09-09T08:36:59;96955.00;;;21.70
19666;BMP180;9980;51.020;7.772;2022-09-09T08:39:35;96959.00;;;21.80
19666;BMP180;9980;51.020;7.772;2022-09-09T08:42:44;96961.00;;;21.80
19666;BMP180;9980;51.020;7.772;2022-09-09T08:45:25;96963.00;;;21.90
19666;BMP180;9980;51.020;7.772;2022-09-09T08:50:40;96969.00;;;22.00
19666;BMP180;9980;51.020;7.772;2022-09-09T08:53:21;96968.00;;;22.00
19666;BMP180;9980;51.020;7.772;2022-09-09T08:56:01;96945.00;;;22.10
19666;BMP180;9980;51.020;7.772;2022-09-09T08:58:52;96953.00;;;22.10
19666;BMP180;9980;51.020;7.772;2022-09-09T09:05:12;96972.00;;;22.20
19666;BMP180;9980;51.020;7.772;2022-09-09T09:08:26;96966.00;;;22.30
19666;BMP180;9980;51.020;7.772;2022-09-09T09:10:58;96972.00;;;22.30
19666;BMP180;9980;51.020;7.772;2022-09-09T09:13:55;96963.00;;;22.30
19666;BMP180;9980;51.020;7.772;2022-09-09T09:16:36;96962.00;;;22.40
19666;BMP180;9980;51.020;7.772;2022-09-09T09:19:08;96972.00;;;22.40
19666;BMP180;9980;51.020;7.772;2022-09-09T09:21:54;96975.00;;;22.50
19666;BMP180;9980;51.020;7.772;2022-09-09T09:24:49;96975.00;;;22.40
19666;BMP180;9980;51.020;7.772;2022-09-09T09:30:23;96971.00;;;22.40
19666;BMP180;9980;51.020;7.772;2022-09-09T09:33:27;96976.00;;;22.40
19666;BMP180;9980;51.020;7.772;2022-09-09T09:35:56;96981.00;;;22.40
19666;BMP180;9980;51.020;7.772;2022-09-09T09:38:27;96966.00;;;22.30
19666;BMP180;9980;51.020;7.772;2022-09-09T09:41:15;96958.00;;;22.30
19666;BMP180;9980;51.020;7.772;2022-09-09T09:43:41;96968.00;;;22.30
19666;BMP180;9980;51.020;7.772;2022-09-09T09:46:23;96981.00;;;22.20
19666;BMP180;9980;51.020;7.772;2022-09-09T09:49:04;96967.00;;;22.20
19666;BMP180;9980;51.020;7.772;2022-09-09T09:51:36;96971.00;;;22.20
19666;BMP180;9980;51.020;7.772;2022-09-09T09:56:42;96964.00;;;22.20
19666;BMP180;9980;51.020;7.772;2022-09-09T09:59:34;96962.00;;;22.20
19666;BMP180;9980;51.020;7.772;2022-09-09T10:02:23;96976.00;;;22.30
19666;BMP180;9980;51.020;7.772;2022-09-09T10:05:16;96969.00;;;22.40
19666;BMP180;9980;51.020;7.772;2022-09-09T10:08:11;96970.00;;;22.50
19666;BMP180;9980;51.020;7.772;2022-09-09T10:16:57;96968.00;;;22.80
19666;BMP180;9980;51.020;7.772;2022-09-09T10:19:34;96967.00;;;22.80
19666;BMP180;9980;51.020;7.772;2022-09-09T10:22:27;96958.00;;;22.90
19666;BMP180;9980;51.020;7.772;2022-09-09T10:25:29;96971.00;;;22.90
19666;BMP180;9980;51.020;7.772;2022-09-09T10:28:37;96964.00;;;23.00
19666;BMP180;9980;51.020;7.772;2022-09-09T10:34:35;96962.00;;;23.20
19666;BMP180;9980;51.020;7.772;2022-09-09T10:37:39;96972.00;;;23.30
19666;BMP180;9980;51.020;7.772;2022-09-09T10:40:32;96954.00;;;23.40
19666;BMP180;9980;51.020;7.772;2022-09-09T10:50:12;96960.00;;;23.60
19666;BMP180;9980;51.020;7.772;2022-09-09T10:55:15;96954.00;;;23.80
19666;BMP180;9980;51.020;7.772;2022-09-09T10:57:51;96948.00;;;23.80
19666;BMP180;9980;51.020;7.772;2022-09-09T11:00:24;96958.00;;;23.90
19666;BMP180;9980;51.020;7.772;2022-09-09T11:03:02;96945.00;;;24.00
19666;BMP180;9980;51.020;7.772;2022-09-09T11:05:41;96949.00;;;24.00
19666;BMP180;9980;51.020;7.772;2022-09-09T11:08:26;96967.00;;;24.10
19666;BMP180;9980;51.020;7.772;2022-09-09T11:11:25;96951.00;;;24.10
19666;BMP180;9980;51.020;7.772;2022-09-09T11:13:54;96942.00;;;24.20
19666;BMP180;9980;51.020;7.772;2022-09-09T11:16:46;96945.00;;;24.20
19666;BMP180;9980;51.020;7.772;2022-09-09T11:19:38;96943.00;;;24.20
19666;BMP180;9980;51.020;7.772;2022-09-09T11:33:51;96940.00;;;24.70
19666;BMP180;9980;51.020;7.772;2022-09-09T11:44:42;96935.00;;;24.90
19666;BMP180;9980;51.020;7.772;2022-09-09T11:47:35;96922.00;;;24.90
19666;BMP180;9980;51.020;7.772;2022-09-09T11:50:28;96926.00;;;25.00
19666;BMP180;9980;51.020;7.772;2022-09-09T11:53:17;96930.00;;;25.10
19666;BMP180;9980;51.020;7.772;2022-09-09T11:55:48;96919.00;;;25.20
19666;BMP180;9980;51.020;7.772;2022-09-09T11:58:26;96929.00;;;25.20
19666;BMP180;9980;51.020;7.772;2022-09-09T12:00:54;96924.00;;;25.30
19666;BMP180;9980;51.020;7.772;2022-09-09T12:03:48;96942.00;;;25.20
19666;BMP180;9980;51.020;7.772;2022-09-09T12:06:33;96945.00;;;25.40
19666;BMP180;9980;51.020;7.772;2022-09-09T12:09:22;96937.00;;;25.40
19666;BMP180;9980;51.020;7.772;2022-09-09T12:11:50;96936.00;;;25.40
19666;BMP180;9980;51.020;7.772;2022-09-09T12:14:54;96925.00;;;25.40
19666;BMP180;9980;51.020;7.772;2022-09-09T12:17:24;96929.00;;;25.40
19666;BMP180;9980;51.020;7.772;2022-09-09T12:20:49;96929.00;;;25.40
19666;BMP180;9980;51.020;7.772;2022-09-09T12:23:18;96927.00;;;25.40
19666;BMP180;9980;51.020;7.772;2022-09-09T12:25:58;96916.00;;;25.30
19666;BMP180;9980;51.020;7.772;2022-09-09T12:34:19;96934.00;;;25.30
19666;BMP180;9980;51.020;7.772;2022-09-09T12:37:00;96916.00;;;25.20
19666;BMP180;9980;51.020;7.772;2022-09-09T12:39:37;96927.00;;;25.20
19666;BMP180;9980;51.020;7.772;2022-09-09T12:42:22;96911.00;;;25.30
19666;BMP180;9980;51.020;7.772;2022-09-09T12:44:59;96919.00;;;25.30
19666;BMP180;9980;51.020;7.772;2022-09-09T12:47:44;96905.00;;;25.30
19666;BMP180;9980;51.020;7.772;2022-09-09T12:50:23;96920.00;;;25.40
19666;BMP180;9980;51.020;7.772;2022-09-09T12:52:57;96921.00;;;25.40
19666;BMP180;9980;51.020;7.772;2022-09-09T12:55:31;96928.00;;;25.40
19666;BMP180;9980;51.020;7.772;2022-09-09T12:58:02;96938.00;;;25.40
19666;BMP180;9980;51.020;7.772;2022-09-09T13:00:34;96905.00;;;25.40
19666;BMP180;9980;51.020;7.772;2022-09-09T13:03:16;96914.00;;;25.40
19666;BMP180;9980;51.020;7.772;2022-09-09T13:05:43;96910.00;;;25.50
19666;BMP180;9980;51.020;7.772;2022-09-09T13:08:13;96914.00;;;25.50
19666;BMP180;9980;51.020;7.772;2022-09-09T13:10:51;96914.00;;;25.50
19666;BMP180;9980;51.020;7.772;2022-09-09T13:13:41;96904.00;;;25.50
19666;BMP180;9980;51.020;7.772;2022-09-09T13:16:29;96899.00;;;25.50
19666;BMP180;9980;51.020;7.772;2022-09-09T13:19:15;96908.00;;;25.50
19666;BMP180;9980;51.020;7.772;2022-09-09T13:21:43;96908.00;;;25.60
19666;BMP180;9980;51.020;7.772;2022-09-09T13:24:34;96909.00;;;25.50
19666;BMP180;9980;51.020;7.772;2022-09-09T13:27:25;96898.00;;;25.60
19666;BMP180;9980;51.020;7.772;2022-09-09T13:29:55;96901.00;;;25.60
19666;BMP180;9980;51.020;7.772;2022-09-09T13:32:25;96891.00;;;25.60
19666;BMP180;9980;51.020;7.772;2022-09-09T13:34:59;96898.00;;;25.60
19666;BMP180;9980;51.020;7.772;2022-09-09T13:37:38;96897.00;;;25.70
19666;BMP180;9980;51.020;7.772;2022-09-09T13:40:20;96894.00;;;25.70
19666;BMP180;9980;51.020;7.772;2022-09-09T13:42:55;96893.00;;;25.70
19666;BMP180;9980;51.020;7.772;2022-09-09T13:45:25;96888.00;;;25.70
19666;BMP180;9980;51.020;7.772;2022-09-09T13:47:55;96884.00;;;25.70
19666;BMP180;9980;51.020;7.772;2022-09-09T13:50:30;96894.00;;;25.70
19666;BMP180;9980;51.020;7.772;2022-09-09T13:52:59;96908.00;;;25.70
19666;BMP180;9980;51.020;7.772;2022-09-09T13:55:29;96901.00;;;25.70
19666;BMP180;9980;51.020;7.772;2022-09-09T13:58:01;96904.00;;;25.70
19666;BMP180;9980;51.020;7.772;2022-09-09T14:00:34;96898.00;;;25.70
19666;BMP180;9980;51.020;7.772;2022-09-09T14:03:01;96894.00;;;25.70
19666;BMP180;9980;51.020;7.772;2022-09-09T14:05:31;96890.00;;;25.80
19666;BMP180;9980;51.020;7.772;2022-09-09T14:07:59;96889.00;;;25.80
19666;BMP180;9980;51.020;7.772;2022-09-09T14:10:29;96888.00;;;25.80
19666;BMP180;9980;51.020;7.772;2022-09-09T14:12:56;96893.00;;;25.70
19666;BMP180;9980;51.020;7.772;2022-09-09T14:15:23;96892.00;;;25.70
19666;BMP180;9980;51.020;7.772;2022-09-09T14:17:50;96894.00;;;25.70
19666;BMP180;9980;51.020;7.772;2022-09-09T14:20:18;96901.00;;;25.70
19666;BMP180;9980;51.020;7.772;2022-09-09T14:22:46;96894.00;;;25.60
19666;BMP180;9980;51.020;7.772;2022-09-09T14:25:13;96894.00;;;25.60
19666;BMP180;9980;51.020;7.772;2022-09-09T14:27:41;96902.00;;;25.50
19666;BMP180;9980;51.020;7.772;2022-09-09T14:30:09;96899.00;;;25.50
19666;BMP180;9980;51.020;7.772;2022-09-09T14:32:42;96912.00;;;25.50
19666;BMP180;9980;51.020;7.772;2022-09-09T14:35:09;96907.00;;;25.40
19666;BMP180;9980;51.020;7.772;2022-09-09T14:37:36;96925.00;;;25.40
19666;BMP180;9980;51.020;7.772;2022-09-09T14:40:03;96913.00;;;25.30
19666;BMP180;9980;51.020;7.772;2022-09-09T14:42:30;96919.00;;;25.30
19666;BMP180;9980;51.020;7.772;2022-09-09T14:44:57;96915.00;;;25.20
19666;BMP180;9980;51.020;7.772;2022-09-09T14:47:24;96920.00;;;25.10
19666;BMP180;9980;51.020;7.772;2022-09-09T14:49:52;96914.00;;;25.00
19666;BMP180;9980;51.020;7.772;2022-09-09T14:52:20;96917.00;;;25.00
19666;BMP180;9980;51.020;7.772;2022-09-09T14:54:47;96903.00;;;25.00
19666;BMP180;9980;51.020;7.772;2022-09-09T14:57:14;96903.00;;;24.90
19666;BMP180;9980;51.020;7.772;2022-09-09T14:59:41;96908.00;;;24.90
19666;BMP180;9980;51.020;7.772;2022-09-09T15:02:09;96905.00;;;24.90
19666;BMP180;9980;51.020;7.772;2022-09-09T15:04:36;96909.00;;;24.90
19666;BMP180;9980;51.020;7.772;2022-09-09T15:07:03;96905.00;;;24.90
19666;BMP180;9980;51.020;7.772;2022-09-09T15:09:29;96918.00;;;24.90
19666;BMP180;9980;51.020;7.772;2022-09-09T15:11:56;96909.00;;;25.00
19666;BMP180;9980;51.020;7.772;2022-09-09T15:14:23;96907.00;;;24.90
19666;BMP180;9980;51.020;7.772;2022-09-09T15:16:52;96906.00;;;24.90
19666;BMP180;9980;51.020;7.772;2022-09-09T15:19:18;96908.00;;;24.80
19666;BMP180;9980;51.020;7.772;2022-09-09T15:21:45;96921.00;;;24.80
19666;BMP180;9980;51.020;7.772;2022-09-09T15:24:12;96906.00;;;24.70
19666;BMP180;9980;51.020;7.772;2022-09-09T15:26:40;96899.00;;;24.70
19666;BMP180;9980;51.020;7.772;2022-09-09T15:29:07;96902.00;;;24.60
19666;BMP180;9980;51.020;7.772;2022-09-09T15:31:35;96896.00;;;24.60
19666;BMP180;9980;51.020;7.772;2022-09-09T15:34:05;96897.00;;;24.60
19666;BMP180;9980;51.020;7.772;2022-09-09T15:36:43;96899.00;;;24.50
19666;BMP180;9980;51.020;7.772;2022-09-09T15:39:13;96896.00;;;24.40
19666;BMP180;9980;51.020;7.772;2022-09-09T15:41:48;96892.00;;;24.40
19666;BMP180;9980;51.020;7.772;2022-09-09T15:44:15;96884.00;;;24.40
19666;BMP180;9980;51.020;7.772;2022-09-09T15:46:51;96893.00;;;24.30
19666;BMP180;9980;51.020;7.772;2022-09-09T15:49:25;96900.00;;;24.20
19666;BMP180;9980;51.020;7.772;2022-09-09T15:51:56;96902.00;;;24.20
19666;BMP180;9980;51.020;7.772;2022-09-09T15:54:25;96897.00;;;24.10
19666;BMP180;9980;51.020;7.772;2022-09-09T15:56:57;96912.00;;;24.00
19666;BMP180;9980;51.020;7.772;2022-09-09T15:59:26;96918.00;;;23.90
19666;BMP180;9980;51.020;7.772;2022-09-09T16:01:54;96921.00;;;23.80
19666;BMP180;9980;51.020;7.772;2022-09-09T16:04:23;96919.00;;;23.70
19666;BMP180;9980;51.020;7.772;2022-09-09T16:07:04;96924.00;;;23.60
19666;BMP180;9980;51.020;7.772;2022-09-09T16:09:33;96916.00;;;23.50
19666;BMP180;9980;51.020;7.772;2022-09-09T16:12:04;96915.00;;;23.40
19666;BMP180;9980;51.020;7.772;2022-09-09T16:14:33;96925.00;;;23.30
19666;BMP180;9980;51.020;7.772;2022-09-09T16:17:03;96929.00;;;23.20
19666;BMP180;9980;51.020;7.772;2022-09-09T16:19:32;96944.00;;;23.10
19666;BMP180;9980;51.020;7.772;2022-09-09T16:22:01;96954.00;;;23.00
19666;BMP180;9980;51.020;7.772;2022-09-09T16:24:29;96953.00;;;23.00
19666;BMP180;9980;51.020;7.772;2022-09-09T16:26:56;96952.00;;;22.90